Altus, OK

00:32 CST le 20 décembre 2014 (GMT -0600)
Altus Municipal | Change Station
CLOSE
Current Station
Aéroport
Location: Altus,
Altitude: 1434 ft
Stations météo à proximité

Alt. 1434 ft 34.70 °N, 99.34 °W | Updated 17 minutes ago

Couvert
Couvert
44 ° F
Paraît 40 ° F
N
7
Vent Variable Vent de Sud

Aujourd'hui
Haut(e) -- | Bas -- ° F
--% Risque de précip.
Hier
Haut(e) -- | Bas -- ° F
Precip. -- pouce
7:40 AM 5:29 PM
Lune descendante, 4% visible
Pression 30.22 pouce
Visibilité 10.0 Miles terrestres
Nuages Couvert 2300 ft
Refroidissement éolien 40 ° F
Point de rosée 39 ° F
Humidité 82%
Précipitations 0.00 pouce
Profondeur de la couche neigeuse Non disponible.
UV 0 sur 12
Pollen 7.80 sur 12
Qualité de l'air Non disponible.
Flu Activity Non disponible.
METAR KAXS 200615Z AUTO 17006KT 10SM OVC023 07/04 A3022 RMK AO2 T00660038

More Conditions Fewer Conditions

Pression 30.22 pouce
Visibilité 10.0 Miles terrestres
Nuages Couvert 2300 ft
Refroidissement éolien 40 ° F
Point de rosée 39 ° F
Humidité 82%
Précipitations 0.00 pouce
Profondeur de la couche neigeuse Non disponible.
UV 0 sur 12
Pollen 7.80 sur 12
Qualité de l'air Non disponible.
Flu Activity Non disponible.
METAR KAXS 200615Z AUTO 17006KT 10SM OVC023 07/04 A3022 RMK AO2 T00660038

More Conditions Fewer Conditions

10-Day Weather Forecast

Almanac

Astronomie

Dec. 20, 2014 Lever Coucher
Temps réel
Crépuscule civil
Crépuscule nautique
Crépuscule astronomique
Lune
Durée de lumière visible
Longueur du jour
Tomorrow will be .
, % of the Moon is Illuminated

Extrêmes aujourd'hui

State Highs State Lows

Community

WunderPhotos

Upload Photos

1,779,145 Photos téléchargées !

WunderBlogs® & News

Nearby

Qualité de l'air

  Qualité de l'air Indice de la qualité de l'air Polluant
Not available.

Épaisseur de neige

Station Depth Altitude

Activité sismique

Ville Distance Mag. Time & Date
Minimum magnitude displayed is 2.5.

Températures des eaux côtières

Lieu Température

Stations météo à proximité